createdAt,value
2018-09-22T00:01:26.648Z,3.77
2018-09-22T00:03:54.374Z,3.97
2018-09-22T00:06:22.107Z,3.87
2018-09-22T00:08:49.843Z,4.20
2018-09-22T00:11:17.642Z,3.87
2018-09-22T00:13:45.376Z,4.17
2018-09-22T00:16:13.106Z,3.97
2018-09-22T00:18:40.856Z,3.83
2018-09-22T00:21:08.602Z,3.97
2018-09-22T00:23:36.643Z,4.23
2018-09-22T00:26:04.385Z,3.93
2018-09-22T00:28:32.126Z,3.60
2018-09-22T00:30:59.911Z,3.93
2018-09-22T00:33:27.582Z,4.17
2018-09-22T00:35:55.298Z,3.83
2018-09-22T00:38:23.014Z,3.57
2018-09-22T00:40:50.762Z,4.00
2018-09-22T00:43:18.531Z,4.43
2018-09-22T00:45:46.316Z,3.57
2018-09-22T00:48:14.037Z,4.03
2018-09-22T00:50:41.782Z,4.60
2018-09-22T00:53:09.481Z,4.43
2018-09-22T00:55:37.241Z,4.23
2018-09-22T00:58:05.006Z,3.93
2018-09-22T01:00:32.805Z,5.67
2018-09-22T01:03:00.587Z,6.00
2018-09-22T01:05:28.366Z,4.50
2018-09-22T01:07:56.151Z,3.73
2018-09-22T01:10:23.880Z,4.27
2018-09-22T01:12:51.598Z,3.83
2018-09-22T01:15:19.383Z,4.70
2018-09-22T01:17:47.134Z,4.40
2018-09-22T01:20:14.856Z,4.60
2018-09-22T01:22:42.634Z,4.27
2018-09-22T01:25:10.404Z,4.37
2018-09-22T01:27:38.195Z,4.50
2018-09-22T01:30:05.987Z,4.63
2018-09-22T01:32:33.690Z,4.07
2018-09-22T01:35:01.432Z,4.30
2018-09-22T01:37:29.347Z,4.50
2018-09-22T01:39:57.102Z,4.50
2018-09-22T01:42:24.876Z,4.97
2018-09-22T01:44:52.655Z,4.60
2018-09-22T01:47:20.400Z,5.40
2018-09-22T01:49:48.218Z,4.80
2018-09-22T01:52:15.982Z,4.63
2018-09-22T01:54:43.723Z,4.50
2018-09-22T01:57:11.403Z,4.87
2018-09-22T01:59:39.207Z,4.80
2018-09-22T02:02:06.995Z,4.53
2018-09-22T02:04:34.782Z,5.20
2018-09-22T02:07:02.559Z,4.97
2018-09-22T02:09:30.307Z,4.93
2018-09-22T02:11:58.100Z,4.80
2018-09-22T02:14:25.871Z,5.40
2018-09-22T02:16:53.654Z,5.50
2018-09-22T02:19:21.422Z,4.67
2018-09-22T02:21:49.207Z,4.33
2018-09-22T02:24:16.906Z,5.07
2018-09-22T02:26:44.687Z,5.60
2018-09-22T02:29:12.571Z,5.60
2018-09-22T02:31:40.303Z,4.97
2018-09-22T02:34:08.015Z,4.97
2018-09-22T02:36:35.816Z,5.00
2018-09-22T02:39:05.364Z,5.20
2018-09-22T02:41:33.127Z,4.83
2018-09-22T02:44:00.963Z,5.00
2018-09-22T02:46:28.694Z,5.70
2018-09-22T02:48:56.444Z,5.13
2018-09-22T02:51:24.218Z,5.83
2018-09-22T02:53:51.955Z,5.80
2018-09-22T02:56:19.668Z,4.77
2018-09-22T02:58:47.424Z,5.93
2018-09-22T03:01:15.129Z,5.23
2018-09-22T03:03:42.877Z,5.80
2018-09-22T03:06:10.667Z,5.87
2018-09-22T03:08:38.394Z,6.07
2018-09-22T03:11:06.200Z,5.63
2018-09-22T03:13:33.967Z,6.23
2018-09-22T03:16:01.683Z,5.97
2018-09-22T03:18:29.439Z,5.57
2018-09-22T03:20:57.170Z,5.70
2018-09-22T03:23:25.019Z,5.57
2018-09-22T03:25:52.727Z,5.67
2018-09-22T03:28:20.555Z,5.40
2018-09-22T03:30:48.332Z,5.93
2018-09-22T03:33:16.047Z,5.43
2018-09-22T03:35:43.793Z,5.60
2018-09-22T03:38:11.536Z,6.27
2018-09-22T03:40:39.243Z,6.77
2018-09-22T03:43:06.995Z,6.17
2018-09-22T03:45:34.791Z,7.30
2018-09-22T03:48:02.536Z,8.10
2018-09-22T03:50:30.322Z,7.33
2018-09-22T03:52:58.053Z,8.03
2018-09-22T03:55:25.893Z,7.70
2018-09-22T03:57:53.658Z,7.67
2018-09-22T04:00:21.406Z,8.13
2018-09-22T04:02:49.092Z,8.00
2018-09-22T04:05:16.796Z,8.03
2018-09-22T04:07:44.508Z,7.27
2018-09-22T04:10:12.203Z,9.20
2018-09-22T04:12:40.075Z,8.10
2018-09-22T04:15:07.866Z,8.47
2018-09-22T04:17:35.623Z,8.73
2018-09-22T04:20:03.580Z,7.43
2018-09-22T04:22:31.302Z,7.77
2018-09-22T04:24:59.014Z,7.77
2018-09-22T04:27:26.874Z,8.57
2018-09-22T04:29:54.648Z,7.33
2018-09-22T04:32:22.375Z,8.90
2018-09-22T04:34:50.164Z,8.63
2018-09-22T04:37:17.911Z,7.97
2018-09-22T04:39:45.655Z,7.33
2018-09-22T04:42:13.427Z,6.83
2018-09-22T04:44:41.195Z,6.27
2018-09-22T04:47:08.914Z,6.43
2018-09-22T04:49:36.738Z,7.73
2018-09-22T04:52:04.513Z,6.73
2018-09-22T04:54:32.312Z,5.93
2018-09-22T04:57:00.082Z,6.03
2018-09-22T04:59:27.864Z,5.83
2018-09-22T05:01:55.680Z,5.63
2018-09-22T05:04:23.390Z,4.87
2018-09-22T05:06:51.078Z,5.20
2018-09-22T05:09:18.875Z,5.70
2018-09-22T05:11:46.695Z,6.13
2018-09-22T05:14:14.479Z,5.70
2018-09-22T05:16:42.190Z,5.13
2018-09-22T05:19:10.181Z,5.00
2018-09-22T05:21:37.955Z,5.20
2018-09-22T05:24:05.706Z,4.77
2018-09-22T05:26:33.479Z,6.80
2018-09-22T05:29:01.159Z,14.10
2018-09-22T05:31:28.919Z,11.67
2018-09-22T05:33:56.692Z,9.93
2018-09-22T05:36:24.520Z,8.47
2018-09-22T05:38:52.420Z,8.87
2018-09-22T05:41:20.223Z,14.50
2018-09-22T05:43:48.027Z,12.70
2018-09-22T05:46:15.804Z,11.97
2018-09-22T05:48:43.644Z,28.03
2018-09-22T05:51:11.359Z,26.83
2018-09-22T05:53:39.202Z,29.67
2018-09-22T05:56:07.035Z,28.43
2018-09-22T05:58:34.819Z,26.43
2018-09-22T06:01:02.596Z,27.90
2018-09-22T06:03:30.572Z,26.67
2018-09-22T06:05:58.187Z,28.00
2018-09-22T06:08:25.983Z,26.53
2018-09-22T06:10:53.781Z,25.83
2018-09-22T06:13:21.583Z,23.13
2018-09-22T06:15:49.499Z,21.60
2018-09-22T06:18:17.280Z,23.87
2018-09-22T06:20:45.112Z,31.33
2018-09-22T06:23:12.921Z,29.83
2018-09-22T06:25:40.775Z,27.07
2018-09-22T06:28:08.513Z,26.30
2018-09-22T06:30:36.292Z,27.37
2018-09-22T06:33:04.061Z,24.20
2018-09-22T06:35:31.911Z,21.87
2018-09-22T06:37:59.619Z,21.27
2018-09-22T06:40:27.389Z,20.00
2018-09-22T06:42:55.230Z,18.07
2018-09-22T06:45:23.015Z,15.87
2018-09-22T06:47:50.848Z,14.40
2018-09-22T06:50:18.603Z,13.27
2018-09-22T06:52:46.324Z,13.47
2018-09-22T06:55:14.147Z,12.47
2018-09-22T06:57:41.911Z,12.37
2018-09-22T07:00:09.720Z,11.40
2018-09-22T07:02:37.544Z,10.93
2018-09-22T07:05:05.372Z,11.13
2018-09-22T07:07:33.122Z,10.77
2018-09-22T07:10:00.828Z,11.53
2018-09-22T07:12:28.596Z,10.40
2018-09-22T07:14:56.307Z,9.93
2018-09-22T07:17:24.119Z,8.50
2018-09-22T07:19:51.810Z,7.17
2018-09-22T07:22:25.070Z,7.57
2018-09-22T07:24:52.791Z,9.53
2018-09-22T07:27:20.554Z,8.20
2018-09-22T07:29:48.331Z,9.23
2018-09-22T07:32:16.100Z,7.80
2018-09-22T07:34:43.777Z,6.13
2018-09-22T07:37:11.724Z,5.87
2018-09-22T07:39:39.506Z,5.23
2018-09-22T07:42:07.274Z,5.30
2018-09-22T07:44:35.088Z,5.00
2018-09-22T07:47:02.953Z,4.73
2018-09-22T07:49:30.674Z,4.97
2018-09-22T07:51:58.464Z,5.03
2018-09-22T07:54:26.216Z,5.40
2018-09-22T07:56:53.994Z,5.50
2018-09-22T07:59:21.792Z,5.00
2018-09-22T08:01:49.608Z,5.00
2018-09-22T08:04:17.387Z,4.80
2018-09-22T08:06:45.126Z,4.67
2018-09-22T08:09:12.892Z,5.43
2018-09-22T08:11:40.705Z,4.70
2018-09-22T08:14:08.436Z,4.70
2018-09-22T08:16:36.214Z,5.27
2018-09-22T08:19:04.006Z,4.47
2018-09-22T08:21:31.771Z,4.83
2018-09-22T08:23:59.579Z,4.50
2018-09-22T08:26:27.361Z,4.47
2018-09-22T08:28:55.139Z,4.33
2018-09-22T08:31:22.926Z,4.60
2018-09-22T08:33:50.715Z,4.63
2018-09-22T08:36:18.570Z,4.50
2018-09-22T08:38:46.358Z,3.60
2018-09-22T08:41:14.106Z,3.70
2018-09-22T08:43:41.896Z,3.50
2018-09-22T08:46:09.629Z,4.00
2018-09-22T08:48:37.398Z,4.27
2018-09-22T08:51:05.305Z,4.23
2018-09-22T08:53:32.998Z,3.63
2018-09-22T08:56:00.728Z,4.03
2018-09-22T08:58:28.495Z,3.80
2018-09-22T09:00:56.552Z,3.87
2018-09-22T09:03:24.319Z,3.97
2018-09-22T09:05:52.165Z,4.03
2018-09-22T09:08:19.962Z,3.70
2018-09-22T09:10:48.024Z,3.70
2018-09-22T09:13:15.884Z,3.53
2018-09-22T09:15:43.591Z,3.90
2018-09-22T09:18:11.315Z,4.40
2018-09-22T09:20:39.387Z,4.57
2018-09-22T09:23:07.134Z,3.60
2018-09-22T09:25:34.904Z,3.40
2018-09-22T09:28:02.646Z,4.63
2018-09-22T09:30:30.419Z,3.40
2018-09-22T09:32:58.166Z,3.50
2018-09-22T09:35:25.931Z,3.43
2018-09-22T09:37:53.593Z,3.70
2018-09-22T09:40:21.317Z,3.37
2018-09-22T09:42:49.115Z,3.17
2018-09-22T09:45:16.895Z,2.90
2018-09-22T09:47:44.684Z,2.80
2018-09-22T09:50:12.507Z,2.77
2018-09-22T09:52:40.219Z,3.10
2018-09-22T09:55:07.708Z,2.77
2018-09-22T09:57:35.522Z,3.10
2018-09-22T10:00:03.450Z,2.70
2018-09-22T10:02:31.145Z,2.90
2018-09-22T10:04:58.912Z,2.70
2018-09-22T10:07:26.645Z,3.00
2018-09-22T10:09:54.391Z,3.40
2018-09-22T10:12:22.173Z,2.93
2018-09-22T10:14:49.889Z,2.70
2018-09-22T10:17:17.783Z,2.80
2018-09-22T10:19:45.520Z,2.80
2018-09-22T10:22:13.275Z,2.70
2018-09-22T10:24:41.019Z,3.03
2018-09-22T10:27:08.854Z,3.10
2018-09-22T10:29:36.637Z,2.80
2018-09-22T10:32:04.420Z,2.57
2018-09-22T10:34:32.247Z,2.80
2018-09-22T10:37:00.039Z,3.23
2018-09-22T10:39:27.848Z,2.80
2018-09-22T10:41:55.689Z,2.70
2018-09-22T10:44:23.402Z,3.27
2018-09-22T10:46:51.163Z,2.70
2018-09-22T10:49:18.954Z,2.93
2018-09-22T10:51:46.659Z,2.67
2018-09-22T10:54:14.454Z,2.70
2018-09-22T10:56:42.172Z,2.60
2018-09-22T10:59:09.912Z,2.70
2018-09-22T11:01:37.720Z,2.50
2018-09-22T11:04:05.480Z,2.73
2018-09-22T11:06:33.215Z,2.73
2018-09-22T11:09:01.070Z,2.80
2018-09-22T11:11:29.072Z,2.20
2018-09-22T11:13:56.822Z,2.30
2018-09-22T11:16:24.566Z,2.03
2018-09-22T11:18:52.407Z,2.20
2018-09-22T11:21:20.181Z,1.90
2018-09-22T11:23:47.962Z,2.20
2018-09-22T11:26:15.789Z,2.20
2018-09-22T11:28:43.562Z,1.90
2018-09-22T11:31:11.365Z,1.90
2018-09-22T11:33:39.154Z,1.90
2018-09-22T11:36:06.968Z,2.20
2018-09-22T11:38:34.760Z,2.00
2018-09-22T11:41:02.605Z,1.80
2018-09-22T11:43:30.392Z,2.13
2018-09-22T11:45:58.224Z,1.77
2018-09-22T11:48:26.038Z,1.90
2018-09-22T11:50:53.827Z,1.90
2018-09-22T11:53:21.651Z,1.60
2018-09-22T11:55:49.505Z,1.77
2018-09-22T11:58:17.314Z,1.60
2018-09-22T12:00:45.122Z,1.93
2018-09-22T12:03:12.940Z,1.70
2018-09-22T12:05:40.741Z,1.80
2018-09-22T12:08:08.859Z,1.90
2018-09-22T12:10:36.707Z,1.87
2018-09-22T12:13:04.538Z,1.60
2018-09-22T12:15:32.388Z,1.50
2018-09-22T12:18:00.213Z,1.87
2018-09-22T12:20:28.012Z,1.47
2018-09-22T12:22:55.813Z,1.70
2018-09-22T12:25:23.643Z,1.47
2018-09-22T12:27:51.434Z,1.83
2018-09-22T12:30:19.231Z,1.50
2018-09-22T12:32:47.022Z,1.70
2018-09-22T12:35:14.846Z,1.50
2018-09-22T12:37:42.669Z,1.77
2018-09-22T12:40:10.477Z,1.90
2018-09-22T12:42:38.279Z,1.80
2018-09-22T12:45:06.125Z,1.70
2018-09-22T12:47:34.003Z,1.90
2018-09-22T12:50:01.811Z,1.57
2018-09-22T12:52:29.723Z,2.00
2018-09-22T12:54:57.575Z,1.80
2018-09-22T12:57:25.375Z,1.80
2018-09-22T12:59:53.216Z,1.70
2018-09-22T13:02:21.038Z,1.90
2018-09-22T13:04:48.819Z,2.17
2018-09-22T13:07:16.705Z,1.90
2018-09-22T13:09:44.574Z,1.40
2018-09-22T13:12:12.391Z,1.63
2018-09-22T13:14:40.208Z,1.80
2018-09-22T13:17:08.098Z,2.03
2018-09-22T13:19:35.907Z,1.90
2018-09-22T13:22:03.710Z,2.03
2018-09-22T13:24:31.571Z,1.67
2018-09-22T13:26:59.388Z,1.67
2018-09-22T13:29:27.192Z,1.43
2018-09-22T13:31:58.818Z,1.70
2018-09-22T13:34:26.642Z,1.60
2018-09-22T13:36:54.443Z,1.70
2018-09-22T13:39:22.339Z,1.73
2018-09-22T13:41:50.160Z,1.70
2018-09-22T13:44:17.969Z,1.90
2018-09-22T13:46:45.818Z,1.93
2018-09-22T13:49:13.626Z,2.23
2018-09-22T13:51:41.916Z,1.90
2018-09-22T13:54:09.787Z,1.80
2018-09-22T13:56:37.557Z,1.97
2018-09-22T13:59:05.496Z,2.00
2018-09-22T14:01:33.455Z,1.90
2018-09-22T14:04:01.307Z,2.00
2018-09-22T14:06:29.148Z,1.77
2018-09-22T14:08:56.980Z,2.10
2018-09-22T14:11:24.811Z,1.80
2018-09-22T14:13:52.610Z,1.90
2018-09-22T14:16:20.401Z,1.90
2018-09-22T14:18:48.276Z,2.40
2018-09-22T14:21:16.399Z,2.27
2018-09-22T14:23:44.261Z,2.00
2018-09-22T14:26:12.053Z,2.23
2018-09-22T14:28:39.844Z,2.30
2018-09-22T14:31:07.674Z,2.33
2018-09-22T14:33:35.459Z,2.37
2018-09-22T14:36:03.280Z,2.40
2018-09-22T14:38:31.129Z,1.80
2018-09-22T14:40:58.907Z,2.10
2018-09-22T14:43:26.711Z,2.63
2018-09-22T14:45:54.591Z,2.20
2018-09-22T14:48:22.380Z,2.40
2018-09-22T14:50:50.398Z,2.73
2018-09-22T14:53:18.222Z,2.40
2018-09-22T14:55:46.042Z,2.17
2018-09-22T14:58:13.826Z,2.20
2018-09-22T15:00:41.684Z,2.13
2018-09-22T15:03:09.496Z,2.20
2018-09-22T15:05:37.320Z,2.20
2018-09-22T15:08:05.207Z,2.70
2018-09-22T15:10:33.027Z,2.40
2018-09-22T15:13:00.797Z,2.97
2018-09-22T15:15:28.652Z,2.83
2018-09-22T15:17:56.487Z,2.93
2018-09-22T15:20:24.248Z,3.03
2018-09-22T15:22:52.030Z,2.73
2018-09-22T15:25:19.818Z,2.87
2018-09-22T15:27:47.613Z,2.00
2018-09-22T15:30:15.416Z,2.40
2018-09-22T15:32:43.187Z,2.40
2018-09-22T15:35:10.990Z,2.43
2018-09-22T15:37:39.065Z,2.20
2018-09-22T15:40:07.252Z,2.60
2018-09-22T15:42:35.310Z,2.30
2018-09-22T15:45:03.163Z,2.90
2018-09-22T15:47:30.954Z,2.63
2018-09-22T15:49:58.773Z,2.30
2018-09-22T15:52:26.605Z,3.20
2018-09-22T15:54:54.409Z,2.90
2018-09-22T15:57:22.214Z,2.70
2018-09-22T15:59:50.026Z,2.80
2018-09-22T16:02:17.855Z,3.03
2018-09-22T16:04:45.669Z,3.47
2018-09-22T16:07:13.528Z,3.77
2018-09-22T16:09:41.365Z,4.10
2018-09-22T16:12:09.135Z,3.95
2018-09-22T16:14:36.954Z,5.20
2018-09-22T16:17:04.781Z,4.40
2018-09-22T16:19:32.603Z,4.20
2018-09-22T16:22:00.442Z,4.33
2018-09-22T16:24:28.233Z,4.80
2018-09-22T16:26:56.056Z,5.00
2018-09-22T16:29:23.880Z,4.60
2018-09-22T16:31:51.691Z,4.43
2018-09-22T16:34:19.487Z,4.17
2018-09-22T16:36:47.324Z,3.40
2018-09-22T16:39:15.107Z,3.97
2018-09-22T16:41:42.930Z,3.30
2018-09-22T16:44:10.801Z,3.60
2018-09-22T16:46:38.579Z,4.00
2018-09-22T16:49:06.447Z,3.90
2018-09-22T16:51:34.207Z,5.40
2018-09-22T16:54:02.004Z,5.20
2018-09-22T16:56:29.783Z,4.93
2018-09-22T16:58:57.658Z,4.80
2018-09-22T17:01:25.504Z,4.13
2018-09-22T17:03:53.382Z,3.50
2018-09-22T17:06:21.206Z,3.80
2018-09-22T17:08:48.999Z,5.73
2018-09-22T17:11:16.848Z,4.47
2018-09-22T17:13:44.682Z,4.37
2018-09-22T17:16:12.526Z,3.93
2018-09-22T17:18:40.382Z,3.73
2018-09-22T17:21:08.236Z,2.93
2018-09-22T17:23:36.099Z,3.60
2018-09-22T17:26:03.906Z,2.90
2018-09-22T17:28:31.760Z,3.20
2018-09-22T17:30:59.562Z,3.67
2018-09-22T17:33:27.452Z,3.30
2018-09-22T17:35:55.260Z,3.40
2018-09-22T17:38:23.083Z,2.80
2018-09-22T17:40:50.876Z,3.10
2018-09-22T17:43:18.824Z,3.37
2018-09-22T17:45:46.529Z,4.80
2018-09-22T17:48:14.326Z,4.07
2018-09-22T17:50:42.185Z,4.97
2018-09-22T17:53:10.002Z,2.77
2018-09-22T17:55:37.834Z,2.50
2018-09-22T17:58:05.993Z,2.83
2018-09-22T18:00:33.799Z,2.80
2018-09-22T18:03:01.613Z,2.67
2018-09-22T18:05:29.435Z,3.20
2018-09-22T18:07:57.231Z,4.30
2018-09-22T18:10:25.033Z,4.40
2018-09-22T18:12:52.859Z,4.03
2018-09-22T18:15:20.641Z,3.97
2018-09-22T18:17:48.435Z,4.40
2018-09-22T18:20:16.237Z,4.00
2018-09-22T18:22:44.015Z,4.67
2018-09-22T18:25:11.809Z,3.17
2018-09-22T18:27:39.672Z,2.93
2018-09-22T18:30:07.507Z,3.43
2018-09-22T18:32:35.297Z,4.50
2018-09-22T18:35:03.153Z,2.83
2018-09-22T18:37:30.949Z,3.73
2018-09-22T18:39:58.758Z,3.07
2018-09-22T18:42:26.597Z,4.40
2018-09-22T18:44:54.349Z,3.40
2018-09-22T18:47:22.151Z,3.20
2018-09-22T18:49:49.967Z,3.50
2018-09-22T18:52:18.661Z,2.63
2018-09-22T18:54:46.458Z,2.50
2018-09-22T18:57:14.285Z,2.30
2018-09-22T18:59:42.103Z,2.10
2018-09-22T19:02:09.934Z,2.33
2018-09-22T19:04:37.776Z,2.60
2018-09-22T19:07:05.591Z,2.00
2018-09-22T19:09:33.440Z,2.77
2018-09-22T19:12:01.262Z,2.40
2018-09-22T19:14:43.518Z,2.37
2018-09-22T19:17:31.694Z,2.53
2018-09-22T19:20:03.161Z,1.90
2018-09-22T19:22:38.025Z,2.00
2018-09-22T19:25:07.481Z,2.33
2018-09-22T19:27:38.527Z,2.10
2018-09-22T19:30:45.176Z,2.10
2018-09-22T19:33:20.813Z,2.20
2018-09-22T19:35:53.925Z,2.30
2018-09-22T19:38:25.632Z,2.23
2018-09-22T19:40:59.712Z,2.33
2018-09-22T19:43:34.714Z,2.50
2018-09-22T19:46:07.441Z,2.50
2018-09-22T19:48:47.394Z,2.30
2018-09-22T19:51:17.116Z,2.60
2018-09-22T19:53:45.672Z,2.40
2018-09-22T19:56:13.508Z,2.40
2018-09-22T19:58:41.283Z,2.10
2018-09-22T20:01:09.132Z,2.50
2018-09-22T20:03:36.980Z,2.50
2018-09-22T20:06:04.843Z,2.27
2018-09-22T20:08:32.651Z,2.43
2018-09-22T20:11:00.604Z,2.77
2018-09-22T20:13:28.399Z,2.47
2018-09-22T20:15:56.200Z,2.13
2018-09-22T20:18:24.044Z,2.23
2018-09-22T20:20:51.857Z,2.40
2018-09-22T20:23:19.678Z,2.03
2018-09-22T20:25:47.540Z,2.40
2018-09-22T20:28:15.336Z,2.40
2018-09-22T20:30:43.136Z,2.87
2018-09-22T20:33:10.978Z,2.87
2018-09-22T20:35:38.768Z,2.50
2018-09-22T20:38:06.608Z,4.33
2018-09-22T20:40:34.453Z,4.00
2018-09-22T20:43:02.307Z,2.93
2018-09-22T20:45:30.116Z,3.30
2018-09-22T20:47:57.942Z,3.43
2018-09-22T20:50:25.725Z,4.00
2018-09-22T20:52:53.565Z,4.60
2018-09-22T20:55:21.408Z,4.27
2018-09-22T20:57:49.200Z,3.80
2018-09-22T21:00:16.970Z,4.17
2018-09-22T21:02:44.804Z,4.03
2018-09-22T21:05:12.598Z,3.53
2018-09-22T21:07:40.424Z,4.17
2018-09-22T21:10:08.297Z,3.83
2018-09-22T21:12:36.088Z,4.23
2018-09-22T21:15:03.955Z,4.00
2018-09-22T21:17:31.796Z,4.37
2018-09-22T21:19:59.611Z,3.10
2018-09-22T21:22:27.401Z,2.80
2018-09-22T21:24:55.244Z,2.70
2018-09-22T21:27:23.054Z,2.60
2018-09-22T21:29:50.767Z,2.90
2018-09-22T21:32:18.555Z,3.70
2018-09-22T21:34:46.338Z,3.30
2018-09-22T21:37:14.115Z,3.50
2018-09-22T21:39:42.011Z,3.77
2018-09-22T21:42:09.856Z,3.90
2018-09-22T21:44:37.603Z,4.00
2018-09-22T21:47:05.413Z,3.83
2018-09-22T21:49:33.175Z,3.77
2018-09-22T21:52:00.956Z,4.23
2018-09-22T21:54:28.753Z,3.97
2018-09-22T21:56:56.536Z,3.73
2018-09-22T21:59:24.287Z,3.70
2018-09-22T22:01:52.107Z,3.90
2018-09-22T22:04:19.881Z,3.23
2018-09-22T22:06:47.668Z,3.33
2018-09-22T22:09:15.472Z,3.53
2018-09-22T22:11:43.231Z,3.17
2018-09-22T22:14:11.159Z,2.70
2018-09-22T22:16:39.557Z,2.70
2018-09-22T22:19:07.739Z,2.83
2018-09-22T22:21:35.556Z,2.93
2018-09-22T22:26:36.816Z,3.10
2018-09-22T22:29:04.736Z,2.77
2018-09-22T22:31:32.507Z,2.57
2018-09-22T22:34:00.335Z,2.90
2018-09-22T22:36:28.176Z,2.77
2018-09-22T22:38:55.947Z,2.97
2018-09-22T22:41:23.764Z,3.13
2018-09-22T22:43:51.620Z,2.93
2018-09-22T22:46:19.393Z,3.13
2018-09-22T22:48:47.147Z,4.07
2018-09-22T22:51:14.951Z,3.87
2018-09-22T22:53:42.723Z,3.60
2018-09-22T22:56:10.510Z,3.60
2018-09-22T22:58:38.367Z,4.03
2018-09-22T23:01:07.093Z,3.80
2018-09-22T23:03:34.878Z,4.70
2018-09-22T23:06:02.745Z,4.77
2018-09-22T23:08:30.502Z,4.37
2018-09-22T23:10:58.288Z,4.17
2018-09-22T23:13:26.108Z,3.93
2018-09-22T23:15:53.873Z,3.50
2018-09-22T23:18:21.619Z,3.83
2018-09-22T23:20:49.470Z,3.90
2018-09-22T23:23:17.242Z,3.63
2018-09-22T23:25:44.939Z,3.87
2018-09-22T23:28:12.761Z,3.60
2018-09-22T23:30:40.508Z,3.57
2018-09-22T23:33:08.300Z,3.67
2018-09-22T23:35:36.116Z,4.90
2018-09-22T23:38:03.899Z,3.40
2018-09-22T23:40:31.655Z,3.63
2018-09-22T23:42:59.476Z,3.73
2018-09-22T23:45:27.214Z,3.97
2018-09-22T23:47:54.954Z,3.93
2018-09-22T23:50:22.719Z,3.97
2018-09-22T23:52:50.468Z,4.50
2018-09-22T23:55:18.182Z,3.90
2018-09-22T23:57:46.002Z,4.20
